sensor_id;sensor_type;location;lat;lon;timestamp;pressure;altitude;pressure_sealevel;temperature;humidity
47761;BME280;33524;55.434;38.520;2022-11-20T00:01:32;100344.81;;;-1.16;94.48
47761;BME280;33524;55.434;38.520;2022-11-20T00:04:01;100342.56;;;-1.30;94.20
47761;BME280;33524;55.434;38.520;2022-11-20T00:06:30;100346.34;;;-1.44;95.12
47761;BME280;33524;55.434;38.520;2022-11-20T00:08:59;100345.66;;;-1.16;94.39
47761;BME280;33524;55.434;38.520;2022-11-20T00:11:30;100348.78;;;-1.37;94.84
47761;BME280;33524;55.434;38.520;2022-11-20T00:14:00;100342.81;;;-1.39;95.59
47761;BME280;33524;55.434;38.520;2022-11-20T00:16:33;100343.22;;;-1.20;94.82
47761;BME280;33524;55.434;38.520;2022-11-20T00:19:01;100342.28;;;-1.18;94.86
47761;BME280;33524;55.434;38.520;2022-11-20T00:21:32;100341.72;;;-1.29;94.49
47761;BME280;33524;55.434;38.520;2022-11-20T00:24:00;100345.75;;;-1.19;95.04
47761;BME280;33524;55.434;38.520;2022-11-20T00:26:31;100331.66;;;-1.06;94.22
47761;BME280;33524;55.434;38.520;2022-11-20T00:29:00;100341.97;;;-1.40;94.94
47761;BME280;33524;55.434;38.520;2022-11-20T00:31:30;100343.31;;;-1.25;96.28
47761;BME280;33524;55.434;38.520;2022-11-20T00:33:58;100342.75;;;-1.36;94.73
47761;BME280;33524;55.434;38.520;2022-11-20T00:36:27;100346.72;;;-1.59;96.14
47761;BME280;33524;55.434;38.520;2022-11-20T00:38:57;100348.41;;;-1.58;97.04
47761;BME280;33524;55.434;38.520;2022-11-20T00:41:27;100344.44;;;-1.73;96.85
47761;BME280;33524;55.434;38.520;2022-11-20T00:43:58;100344.47;;;-1.74;97.95
47761;BME280;33524;55.434;38.520;2022-11-20T00:46:27;100351.88;;;-1.59;97.05
47761;BME280;33524;55.434;38.520;2022-11-20T00:48:55;100342.44;;;-1.60;96.63
47761;BME280;33524;55.434;38.520;2022-11-20T00:51:25;100342.16;;;-1.48;97.69
47761;BME280;33524;55.434;38.520;2022-11-20T00:53:57;100349.75;;;-1.79;97.50
47761;BME280;33524;55.434;38.520;2022-11-20T00:56:26;100349.09;;;-1.89;97.48
47761;BME280;33524;55.434;38.520;2022-11-20T00:58:54;100353.69;;;-2.03;98.08
47761;BME280;33524;55.434;38.520;2022-11-20T01:01:25;100357.91;;;-1.60;98.07
47761;BME280;33524;55.434;38.520;2022-11-20T01:03:57;100350.47;;;-1.74;97.26
47761;BME280;33524;55.434;38.520;2022-11-20T01:06:27;100348.69;;;-1.70;97.17
47761;BME280;33524;55.434;38.520;2022-11-20T01:08:58;100353.56;;;-1.58;97.47
47761;BME280;33524;55.434;38.520;2022-11-20T01:11:29;100346.88;;;-1.65;96.28
47761;BME280;33524;55.434;38.520;2022-11-20T01:13:59;100354.22;;;-1.48;97.77
47761;BME280;33524;55.434;38.520;2022-11-20T01:16:33;100350.28;;;-1.65;96.32
47761;BME280;33524;55.434;38.520;2022-11-20T01:19:06;100346.63;;;-1.54;95.95
47761;BME280;33524;55.434;38.520;2022-11-20T01:21:38;100352.41;;;-1.45;97.47
47761;BME280;33524;55.434;38.520;2022-11-20T01:24:18;100338.50;;;-1.76;96.79
47761;BME280;33524;55.434;38.520;2022-11-20T01:26:48;100358.59;;;-1.52;97.12
47761;BME280;33524;55.434;38.520;2022-11-20T01:29:21;100351.63;;;-1.86;96.84
47761;BME280;33524;55.434;38.520;2022-11-20T01:31:51;100357.62;;;-1.85;97.20
47761;BME280;33524;55.434;38.520;2022-11-20T01:34:21;100343.78;;;-1.81;97.45
47761;BME280;33524;55.434;38.520;2022-11-20T01:36:51;100361.41;;;-1.63;96.94
47761;BME280;33524;55.434;38.520;2022-11-20T01:39:21;100355.97;;;-1.50;97.93
47761;BME280;33524;55.434;38.520;2022-11-20T01:41:51;100358.34;;;-1.80;97.11
47761;BME280;33524;55.434;38.520;2022-11-20T01:44:59;100355.84;;;-1.83;96.75
47761;BME280;33524;55.434;38.520;2022-11-20T01:47:45;100359.53;;;-1.95;97.46
47761;BME280;33524;55.434;38.520;2022-11-20T01:50:25;100358.97;;;-2.09;97.67
47761;BME280;33524;55.434;38.520;2022-11-20T01:53:03;100359.16;;;-1.78;98.76
47761;BME280;33524;55.434;38.520;2022-11-20T01:55:36;100348.00;;;-1.77;98.34
47761;BME280;33524;55.434;38.520;2022-11-20T01:58:08;100363.00;;;-1.96;96.87
47761;BME280;33524;55.434;38.520;2022-11-20T02:00:36;100367.38;;;-1.99;96.83
47761;BME280;33524;55.434;38.520;2022-11-20T02:03:08;100368.38;;;-1.68;96.86
47761;BME280;33524;55.434;38.520;2022-11-20T02:08:17;100373.47;;;-1.63;97.85
47761;BME280;33524;55.434;38.520;2022-11-20T02:10:45;100368.91;;;-1.52;96.17
47761;BME280;33524;55.434;38.520;2022-11-20T02:13:13;100377.69;;;-1.59;96.67
47761;BME280;33524;55.434;38.520;2022-11-20T02:16:01;100380.16;;;-1.56;94.52
47761;BME280;33524;55.434;38.520;2022-11-20T02:18:33;100384.59;;;-1.61;96.76
47761;BME280;33524;55.434;38.520;2022-11-20T02:26:30;100381.22;;;-2.05;96.38
47761;BME280;33524;55.434;38.520;2022-11-20T02:29:02;100385.31;;;-1.54;98.03
47761;BME280;33524;55.434;38.520;2022-11-20T02:31:40;100396.19;;;-1.43;95.46
47761;BME280;33524;55.434;38.520;2022-11-20T02:34:08;100387.09;;;-1.22;94.89
47761;BME280;33524;55.434;38.520;2022-11-20T02:36:38;100389.47;;;-1.49;95.66
47761;BME280;33524;55.434;38.520;2022-11-20T02:39:07;100385.50;;;-2.03;96.16
47761;BME280;33524;55.434;38.520;2022-11-20T02:41:37;100396.19;;;-1.43;97.01
47761;BME280;33524;55.434;38.520;2022-11-20T02:44:05;100390.84;;;-1.71;96.12
47761;BME280;33524;55.434;38.520;2022-11-20T02:46:33;100399.25;;;-1.26;97.69
47761;BME280;33524;55.434;38.520;2022-11-20T02:49:03;100404.06;;;-1.48;95.76
47761;BME280;33524;55.434;38.520;2022-11-20T02:51:31;100413.41;;;-1.42;95.93
47761;BME280;33524;55.434;38.520;2022-11-20T02:53:59;100405.12;;;-1.20;94.64
47761;BME280;33524;55.434;38.520;2022-11-20T02:56:31;100402.72;;;-1.28;94.36
47761;BME280;33524;55.434;38.520;2022-11-20T02:58:59;100406.91;;;-1.60;96.27
47761;BME280;33524;55.434;38.520;2022-11-20T03:01:30;100407.69;;;-1.56;97.04
47761;BME280;33524;55.434;38.520;2022-11-20T03:03:58;100407.44;;;-1.85;95.51
47761;BME280;33524;55.434;38.520;2022-11-20T03:06:26;100414.22;;;-1.80;97.26
47761;BME280;33524;55.434;38.520;2022-11-20T03:08:54;100408.66;;;-1.62;95.86
47761;BME280;33524;55.434;38.520;2022-11-20T03:11:22;100414.75;;;-1.65;95.96
47761;BME280;33524;55.434;38.520;2022-11-20T03:13:50;100409.22;;;-1.88;96.55
47761;BME280;33524;55.434;38.520;2022-11-20T03:16:21;100421.03;;;-1.76;96.65
47761;BME280;33524;55.434;38.520;2022-11-20T03:18:52;100417.84;;;-1.88;97.08
47761;BME280;33524;55.434;38.520;2022-11-20T03:21:20;100415.16;;;-1.08;97.21
47761;BME280;33524;55.434;38.520;2022-11-20T03:23:47;100394.41;;;-1.39;94.65
47761;BME280;33524;55.434;38.520;2022-11-20T03:26:21;100410.16;;;-1.91;95.42
47761;BME280;33524;55.434;38.520;2022-11-20T03:29:00;100416.37;;;-2.01;95.17
47761;BME280;33524;55.434;38.520;2022-11-20T03:31:31;100417.69;;;-1.81;95.91
47761;BME280;33524;55.434;38.520;2022-11-20T03:34:03;100421.94;;;-1.03;97.53
47761;BME280;33524;55.434;38.520;2022-11-20T03:36:31;100426.25;;;-1.79;95.41
47761;BME280;33524;55.434;38.520;2022-11-20T03:39:03;100429.81;;;-1.85;97.22
47761;BME280;33524;55.434;38.520;2022-11-20T03:41:36;100426.22;;;-2.21;95.37
47761;BME280;33524;55.434;38.520;2022-11-20T03:44:07;100423.59;;;-1.37;97.51
47761;BME280;33524;55.434;38.520;2022-11-20T03:46:35;100435.31;;;-1.24;96.64
47761;BME280;33524;55.434;38.520;2022-11-20T03:49:03;100437.28;;;-1.73;94.63
47761;BME280;33524;55.434;38.520;2022-11-20T03:51:33;100433.75;;;-1.69;96.17
47761;BME280;33524;55.434;38.520;2022-11-20T03:54:05;100437.94;;;-1.63;95.99
47761;BME280;33524;55.434;38.520;2022-11-20T03:56:36;100437.69;;;-1.52;94.90
47761;BME280;33524;55.434;38.520;2022-11-20T03:59:10;100434.94;;;-1.07;97.62
47761;BME280;33524;55.434;38.520;2022-11-20T04:01:38;100433.03;;;-1.75;93.78
47761;BME280;33524;55.434;38.520;2022-11-20T04:04:08;100434.16;;;-1.89;95.47
47761;BME280;33524;55.434;38.520;2022-11-20T04:06:37;100421.94;;;-1.79;95.52
47761;BME280;33524;55.434;38.520;2022-11-20T04:09:05;100443.31;;;-0.97;96.95
47761;BME280;33524;55.434;38.520;2022-11-20T04:11:36;100447.13;;;-1.14;96.72
47761;BME280;33524;55.434;38.520;2022-11-20T04:14:05;100455.81;;;-0.80;95.90
47761;BME280;33524;55.434;38.520;2022-11-20T04:16:35;100458.06;;;-1.40;93.07
47761;BME280;33524;55.434;38.520;2022-11-20T04:19:06;100453.34;;;-0.85;95.16
47761;BME280;33524;55.434;38.520;2022-11-20T04:21:34;100456.47;;;-1.08;95.36
47761;BME280;33524;55.434;38.520;2022-11-20T04:24:02;100458.88;;;-1.78;94.23
47761;BME280;33524;55.434;38.520;2022-11-20T04:26:31;100461.50;;;-1.41;97.26
47761;BME280;33524;55.434;38.520;2022-11-20T04:28:59;100459.22;;;-1.95;94.72
47761;BME280;33524;55.434;38.520;2022-11-20T04:31:32;100460.66;;;-1.03;97.91
47761;BME280;33524;55.434;38.520;2022-11-20T04:34:03;100462.00;;;-1.24;94.15
47761;BME280;33524;55.434;38.520;2022-11-20T04:36:31;100463.59;;;-1.57;95.07
47761;BME280;33524;55.434;38.520;2022-11-20T04:39:03;100471.47;;;-1.63;96.00
47761;BME280;33524;55.434;38.520;2022-11-20T04:41:35;100462.62;;;-1.95;96.22
47761;BME280;33524;55.434;38.520;2022-11-20T04:44:04;100486.47;;;-2.29;95.68
47761;BME280;33524;55.434;38.520;2022-11-20T04:46:41;100484.13;;;-2.41;96.75
47761;BME280;33524;55.434;38.520;2022-11-20T04:49:10;100484.09;;;-1.93;98.22
47761;BME280;33524;55.434;38.520;2022-11-20T04:51:39;100489.81;;;-1.78;96.81
47761;BME280;33524;55.434;38.520;2022-11-20T04:54:08;100493.38;;;-2.31;96.31
47761;BME280;33524;55.434;38.520;2022-11-20T04:56:39;100503.09;;;-2.45;96.46
47761;BME280;33524;55.434;38.520;2022-11-20T04:59:08;100495.03;;;-1.81;97.54
47761;BME280;33524;55.434;38.520;2022-11-20T05:01:36;100490.75;;;-1.40;97.50
47761;BME280;33524;55.434;38.520;2022-11-20T05:04:07;100490.00;;;-1.88;95.57
47761;BME280;33524;55.434;38.520;2022-11-20T05:06:35;100497.63;;;-1.81;95.84
47761;BME280;33524;55.434;38.520;2022-11-20T05:09:03;100501.87;;;-1.80;96.09
47761;BME280;33524;55.434;38.520;2022-11-20T05:11:32;100496.06;;;-1.90;96.92
47761;BME280;33524;55.434;38.520;2022-11-20T05:14:00;100514.38;;;-2.04;95.53
47761;BME280;33524;55.434;38.520;2022-11-20T05:16:34;100526.81;;;-2.28;96.19
47761;BME280;33524;55.434;38.520;2022-11-20T05:19:02;100520.38;;;-1.60;97.46
47761;BME280;33524;55.434;38.520;2022-11-20T05:21:30;100535.69;;;-1.51;97.70
47761;BME280;33524;55.434;38.520;2022-11-20T05:23:59;100543.69;;;-1.65;95.69
47761;BME280;33524;55.434;38.520;2022-11-20T05:26:27;100553.66;;;-1.46;98.66
47761;BME280;33524;55.434;38.520;2022-11-20T05:28:55;100544.06;;;-1.85;95.37
47761;BME280;33524;55.434;38.520;2022-11-20T05:31:24;100548.47;;;-1.90;95.69
47761;BME280;33524;55.434;38.520;2022-11-20T05:33:56;100537.84;;;-2.19;96.58
47761;BME280;33524;55.434;38.520;2022-11-20T05:36:24;100547.88;;;-2.03;98.56
47761;BME280;33524;55.434;38.520;2022-11-20T05:38:52;100552.19;;;-1.59;97.89
47761;BME280;33524;55.434;38.520;2022-11-20T05:41:28;100553.50;;;-0.62;96.91
47761;BME280;33524;55.434;38.520;2022-11-20T05:43:58;100551.38;;;-1.19;94.35
47761;BME280;33524;55.434;38.520;2022-11-20T05:46:26;100556.38;;;-1.99;94.74
47761;BME280;33524;55.434;38.520;2022-11-20T05:48:59;100566.44;;;-1.85;96.23
47761;BME280;33524;55.434;38.520;2022-11-20T05:51:27;100567.69;;;-2.06;96.00
47761;BME280;33524;55.434;38.520;2022-11-20T05:54:01;100559.53;;;-1.39;98.24
47761;BME280;33524;55.434;38.520;2022-11-20T05:56:32;100554.59;;;-1.10;97.58
47761;BME280;33524;55.434;38.520;2022-11-20T05:59:00;100571.72;;;-1.48;95.46
47761;BME280;33524;55.434;38.520;2022-11-20T06:01:28;100575.44;;;-2.08;95.03
47761;BME280;33524;55.434;38.520;2022-11-20T06:03:59;100574.06;;;-1.35;98.86
47761;BME280;33524;55.434;38.520;2022-11-20T06:06:27;100574.66;;;-1.66;94.82
47761;BME280;33524;55.434;38.520;2022-11-20T06:08:55;100584.94;;;-2.11;95.18
47761;BME280;33524;55.434;38.520;2022-11-20T06:11:24;100584.28;;;-2.22;95.72
47761;BME280;33524;55.434;38.520;2022-11-20T06:13:55;100582.56;;;-2.24;95.94
47761;BME280;33524;55.434;38.520;2022-11-20T06:16:23;100588.28;;;-2.06;96.48
47761;BME280;33524;55.434;38.520;2022-11-20T06:18:51;100587.41;;;-2.05;94.77
47761;BME280;33524;55.434;38.520;2022-11-20T06:21:21;100595.19;;;-2.08;94.87
47761;BME280;33524;55.434;38.520;2022-11-20T06:23:51;100599.34;;;-1.99;95.77
47761;BME280;33524;55.434;38.520;2022-11-20T06:26:22;100605.00;;;-1.80;96.16
47761;BME280;33524;55.434;38.520;2022-11-20T06:28:51;100611.16;;;-1.88;95.22
47761;BME280;33524;55.434;38.520;2022-11-20T06:31:22;100622.25;;;-1.83;95.66
47761;BME280;33524;55.434;38.520;2022-11-20T06:33:54;100624.00;;;-1.85;95.71
47761;BME280;33524;55.434;38.520;2022-11-20T06:36:22;100636.06;;;-1.87;95.12
47761;BME280;33524;55.434;38.520;2022-11-20T06:38:50;100643.69;;;-1.80;95.83
47761;BME280;33524;55.434;38.520;2022-11-20T06:41:20;100640.28;;;-1.83;95.63
47761;BME280;33524;55.434;38.520;2022-11-20T06:43:49;100641.16;;;-1.37;95.75
47761;BME280;33524;55.434;38.520;2022-11-20T06:46:18;100647.88;;;-1.73;95.61
47761;BME280;33524;55.434;38.520;2022-11-20T06:48:47;100647.09;;;-1.78;95.43
47761;BME280;33524;55.434;38.520;2022-11-20T06:51:19;100642.81;;;-1.79;95.88
47761;BME280;33524;55.434;38.520;2022-11-20T06:53:47;100638.41;;;-1.73;95.44
47761;BME280;33524;55.434;38.520;2022-11-20T06:56:15;100636.75;;;-1.77;95.80
47761;BME280;33524;55.434;38.520;2022-11-20T06:58:43;100639.25;;;-1.72;95.91
47761;BME280;33524;55.434;38.520;2022-11-20T07:01:13;100642.66;;;-1.72;95.85
47761;BME280;33524;55.434;38.520;2022-11-20T07:03:42;100633.87;;;-1.62;96.48
47761;BME280;33524;55.434;38.520;2022-11-20T07:06:10;100630.50;;;-1.64;95.74
47761;BME280;33524;55.434;38.520;2022-11-20T07:08:39;100620.09;;;-1.59;95.13
47761;BME280;33524;55.434;38.520;2022-11-20T07:11:07;100616.72;;;-1.61;94.94
47761;BME280;33524;55.434;38.520;2022-11-20T07:13:35;100613.09;;;-1.52;95.09
47761;BME280;33524;55.434;38.520;2022-11-20T07:16:06;100608.69;;;-1.47;94.02
47761;BME280;33524;55.434;38.520;2022-11-20T07:18:37;100605.09;;;-1.38;93.85
47761;BME280;33524;55.434;38.520;2022-11-20T07:21:08;100607.91;;;-1.09;94.24
47761;BME280;33524;55.434;38.520;2022-11-20T07:23:38;100615.12;;;-1.25;94.57
47761;BME280;33524;55.434;38.520;2022-11-20T07:26:09;100616.03;;;-1.27;93.97
47761;BME280;33524;55.434;38.520;2022-11-20T07:28:37;100613.34;;;-1.21;93.43
47761;BME280;33524;55.434;38.520;2022-11-20T07:31:05;100639.84;;;-1.13;93.16
47761;BME280;33524;55.434;38.520;2022-11-20T07:33:44;100651.00;;;-1.12;93.04
47761;BME280;33524;55.434;38.520;2022-11-20T07:36:12;100640.87;;;-1.22;92.51
47761;BME280;33524;55.434;38.520;2022-11-20T07:38:40;100647.84;;;-1.27;92.87
47761;BME280;33524;55.434;38.520;2022-11-20T07:41:08;100655.69;;;-1.31;92.13
47761;BME280;33524;55.434;38.520;2022-11-20T07:43:36;100654.00;;;-1.32;90.87
47761;BME280;33524;55.434;38.520;2022-11-20T07:46:08;100661.44;;;-1.17;92.20
47761;BME280;33524;55.434;38.520;2022-11-20T07:48:36;100644.88;;;-1.07;92.54
47761;BME280;33524;55.434;38.520;2022-11-20T07:51:04;100666.12;;;-0.94;90.78
47761;BME280;33524;55.434;38.520;2022-11-20T07:53:32;100661.63;;;-0.84;91.96
47761;BME280;33524;55.434;38.520;2022-11-20T07:56:01;100664.88;;;-0.74;93.03
47761;BME280;33524;55.434;38.520;2022-11-20T07:58:30;100658.06;;;-0.78;91.65
47761;BME280;33524;55.434;38.520;2022-11-20T08:01:07;100661.22;;;-0.66;92.41
47761;BME280;33524;55.434;38.520;2022-11-20T08:03:36;100652.53;;;-0.62;92.54
47761;BME280;33524;55.434;38.520;2022-11-20T08:06:10;100647.22;;;-0.55;92.51
47761;BME280;33524;55.434;38.520;2022-11-20T08:08:38;100648.22;;;-0.61;92.54
47761;BME280;33524;55.434;38.520;2022-11-20T08:11:09;100639.72;;;-0.66;91.69
47761;BME280;33524;55.434;38.520;2022-11-20T08:13:56;100652.62;;;-0.66;89.13
47761;BME280;33524;55.434;38.520;2022-11-20T08:16:44;100667.13;;;-0.61;89.35
47761;BME280;33524;55.434;38.520;2022-11-20T08:19:14;100673.12;;;-0.58;90.38
47761;BME280;33524;55.434;38.520;2022-11-20T08:21:45;100667.31;;;-0.68;89.27
47761;BME280;33524;55.434;38.520;2022-11-20T08:24:14;100661.13;;;-0.61;89.53
47761;BME280;33524;55.434;38.520;2022-11-20T08:26:41;100664.28;;;-0.48;91.43
47761;BME280;33524;55.434;38.520;2022-11-20T08:29:09;100625.19;;;-0.70;90.22
47761;BME280;33524;55.434;38.520;2022-11-20T08:31:37;100667.69;;;-0.46;90.25
47761;BME280;33524;55.434;38.520;2022-11-20T08:34:05;100673.66;;;-0.44;90.66
47761;BME280;33524;55.434;38.520;2022-11-20T08:36:38;100678.09;;;-0.49;90.90
47761;BME280;33524;55.434;38.520;2022-11-20T08:39:07;100681.84;;;-0.64;88.01
47761;BME280;33524;55.434;38.520;2022-11-20T08:41:38;100681.53;;;-0.50;90.74
47761;BME280;33524;55.434;38.520;2022-11-20T08:44:07;100674.75;;;-0.54;90.36
47761;BME280;33524;55.434;38.520;2022-11-20T08:46:38;100683.19;;;-0.46;91.84
47761;BME280;33524;55.434;38.520;2022-11-20T08:49:08;100690.12;;;-0.48;93.30
47761;BME280;33524;55.434;38.520;2022-11-20T08:51:40;100674.87;;;-0.61;91.29
47761;BME280;33524;55.434;38.520;2022-11-20T08:54:09;100676.50;;;-0.56;92.69
47761;BME280;33524;55.434;38.520;2022-11-20T08:56:40;100700.09;;;-0.72;90.98
47761;BME280;33524;55.434;38.520;2022-11-20T08:59:08;100702.00;;;-0.80;89.86
47761;BME280;33524;55.434;38.520;2022-11-20T09:01:59;100709.66;;;-0.77;90.79
47761;BME280;33524;55.434;38.520;2022-11-20T09:04:28;100719.19;;;-0.79;90.74
47761;BME280;33524;55.434;38.520;2022-11-20T09:06:56;100713.06;;;-0.75;91.75
47761;BME280;33524;55.434;38.520;2022-11-20T09:09:24;100713.16;;;-0.78;92.00
47761;BME280;33524;55.434;38.520;2022-11-20T09:11:52;100716.59;;;-0.79;92.18
47761;BME280;33524;55.434;38.520;2022-11-20T09:14:20;100725.25;;;-0.82;90.20
47761;BME280;33524;55.434;38.520;2022-11-20T09:16:48;100730.31;;;-0.75;91.58
47761;BME280;33524;55.434;38.520;2022-11-20T09:19:16;100735.50;;;-0.77;92.50
47761;BME280;33524;55.434;38.520;2022-11-20T09:22:04;100738.97;;;-0.78;92.27
47761;BME280;33524;55.434;38.520;2022-11-20T09:24:32;100723.72;;;-0.90;91.13
47761;BME280;33524;55.434;38.520;2022-11-20T09:27:07;100733.69;;;-0.72;91.28
47761;BME280;33524;55.434;38.520;2022-11-20T09:29:35;100736.16;;;-0.67;92.22
47761;BME280;33524;55.434;38.520;2022-11-20T09:32:03;100737.09;;;-0.70;91.36
47761;BME280;33524;55.434;38.520;2022-11-20T09:34:31;100747.53;;;-0.76;91.54
47761;BME280;33524;55.434;38.520;2022-11-20T09:36:59;100759.69;;;-0.81;90.75
47761;BME280;33524;55.434;38.520;2022-11-20T09:39:32;100752.81;;;-0.80;91.43
47761;BME280;33524;55.434;38.520;2022-11-20T09:42:19;100766.59;;;-0.82;91.16
47761;BME280;33524;55.434;38.520;2022-11-20T09:45:25;100758.00;;;-0.82;89.80
47761;BME280;33524;55.434;38.520;2022-11-20T09:56:33;100772.66;;;-0.83;90.43
47761;BME280;33524;55.434;38.520;2022-11-20T09:59:06;100764.84;;;-0.81;91.04
47761;BME280;33524;55.434;38.520;2022-11-20T10:01:36;100766.44;;;-0.74;89.31
47761;BME280;33524;55.434;38.520;2022-11-20T10:04:12;100770.81;;;-0.77;90.18
47761;BME280;33524;55.434;38.520;2022-11-20T10:07:00;100771.59;;;-0.74;92.20
47761;BME280;33524;55.434;38.520;2022-11-20T10:09:55;100783.69;;;-0.76;92.14
47761;BME280;33524;55.434;38.520;2022-11-20T10:23:34;100798.81;;;-1.03;90.01
47761;BME280;33524;55.434;38.520;2022-11-20T10:26:34;100808.25;;;-1.00;91.33
47761;BME280;33524;55.434;38.520;2022-11-20T10:29:21;100795.34;;;-1.00;90.40
47761;BME280;33524;55.434;38.520;2022-11-20T10:32:00;100801.31;;;-0.96;91.06
47761;BME280;33524;55.434;38.520;2022-11-20T10:37:25;100804.59;;;-0.88;92.42
47761;BME280;33524;55.434;38.520;2022-11-20T10:42:51;100809.78;;;-0.91;90.53
47761;BME280;33524;55.434;38.520;2022-11-20T10:48:00;100816.81;;;-0.99;91.30
47761;BME280;33524;55.434;38.520;2022-11-20T10:51:03;100823.81;;;-1.03;89.09
47761;BME280;33524;55.434;38.520;2022-11-20T10:53:50;100826.41;;;-1.05;88.92
47761;BME280;33524;55.434;38.520;2022-11-20T10:56:42;100827.16;;;-0.99;90.72
47761;BME280;33524;55.434;38.520;2022-11-20T11:02:24;100817.72;;;-1.00;90.49
47761;BME280;33524;55.434;38.520;2022-11-20T11:05:31;100820.41;;;-1.07;89.07
47761;BME280;33524;55.434;38.520;2022-11-20T11:07:55;100827.25;;;-1.06;89.78
47761;BME280;33524;55.434;38.520;2022-11-20T11:13:28;100814.94;;;-1.38;88.67
47761;BME280;33524;55.434;38.520;2022-11-20T11:15:57;100822.53;;;-1.30;89.63
47761;BME280;33524;55.434;38.520;2022-11-20T11:18:28;100821.56;;;-1.23;89.48
47761;BME280;33524;55.434;38.520;2022-11-20T11:21:00;100818.72;;;-1.59;88.95
47761;BME280;33524;55.434;38.520;2022-11-20T11:23:41;100832.81;;;-1.27;89.65
47761;BME280;33524;55.434;38.520;2022-11-20T11:26:22;100824.94;;;-1.19;90.85
47761;BME280;33524;55.434;38.520;2022-11-20T11:29:02;100829.31;;;-1.23;90.45
47761;BME280;33524;55.434;38.520;2022-11-20T11:31:33;100831.09;;;-1.28;89.79
47761;BME280;33524;55.434;38.520;2022-11-20T11:34:13;100824.50;;;-1.45;89.29
47761;BME280;33524;55.434;38.520;2022-11-20T11:36:47;100826.66;;;-1.74;89.84
47761;BME280;33524;55.434;38.520;2022-11-20T11:39:18;100836.84;;;-1.65;89.87
47761;BME280;33524;55.434;38.520;2022-11-20T11:41:48;100833.28;;;-1.58;90.14
47761;BME280;33524;55.434;38.520;2022-11-20T11:44:24;100841.94;;;-1.60;91.42
47761;BME280;33524;55.434;38.520;2022-11-20T11:47:33;100841.94;;;-1.60;91.51
47761;BME280;33524;55.434;38.520;2022-11-20T11:55:49;100840.56;;;-1.85;92.57
47761;BME280;33524;55.434;38.520;2022-11-20T11:58:45;100839.91;;;-1.99;92.14
47761;BME280;33524;55.434;38.520;2022-11-20T12:06:56;100857.91;;;-1.96;92.77
47761;BME280;33524;55.434;38.520;2022-11-20T12:09:50;100850.00;;;-1.84;92.55
47761;BME280;33524;55.434;38.520;2022-11-20T12:12:27;100843.06;;;-1.80;92.64
47761;BME280;33524;55.434;38.520;2022-11-20T12:14:58;100837.88;;;-1.75;91.93
47761;BME280;33524;55.434;38.520;2022-11-20T12:17:26;100836.03;;;-1.67;91.60
47761;BME280;33524;55.434;38.520;2022-11-20T12:19:54;100835.75;;;-2.09;92.42
47761;BME280;33524;55.434;38.520;2022-11-20T12:25:07;100843.53;;;-2.12;91.73
47761;BME280;33524;55.434;38.520;2022-11-20T12:30:18;100845.94;;;-1.98;92.99
47761;BME280;33524;55.434;38.520;2022-11-20T12:39:02;100849.34;;;-1.98;92.02
47761;BME280;33524;55.434;38.520;2022-11-20T12:56:53;100846.44;;;-2.40;93.05
47761;BME280;33524;55.434;38.520;2022-11-20T13:00:02;100860.00;;;-2.26;93.01
47761;BME280;33524;55.434;38.520;2022-11-20T13:08:20;100884.75;;;-2.12;93.37
47761;BME280;33524;55.434;38.520;2022-11-20T13:16:11;100886.50;;;-2.14;93.97
47761;BME280;33524;55.434;38.520;2022-11-20T13:18:42;100868.53;;;-2.19;93.82
47761;BME280;33524;55.434;38.520;2022-11-20T13:21:18;100873.63;;;-2.17;93.56
47761;BME280;33524;55.434;38.520;2022-11-20T13:23:47;100887.41;;;-2.20;94.10
47761;BME280;33524;55.434;38.520;2022-11-20T13:26:22;100882.25;;;-2.18;94.92
47761;BME280;33524;55.434;38.520;2022-11-20T13:29:11;100892.50;;;-2.15;95.24
47761;BME280;33524;55.434;38.520;2022-11-20T13:31:48;100875.47;;;-2.26;95.05
47761;BME280;33524;55.434;38.520;2022-11-20T13:34:25;100893.41;;;-2.16;93.93
47761;BME280;33524;55.434;38.520;2022-11-20T13:36:55;100893.41;;;-2.19;94.08
47761;BME280;33524;55.434;38.520;2022-11-20T13:39:37;100896.00;;;-2.19;94.25
47761;BME280;33524;55.434;38.520;2022-11-20T13:44:44;100896.94;;;-2.25;94.68
47761;BME280;33524;55.434;38.520;2022-11-20T13:47:26;100917.50;;;-2.22;95.11
47761;BME280;33524;55.434;38.520;2022-11-20T13:49:57;100913.25;;;-2.26;95.78
47761;BME280;33524;55.434;38.520;2022-11-20T13:52:51;100909.78;;;-2.22;96.30
47761;BME280;33524;55.434;38.520;2022-11-20T14:01:17;100907.13;;;-2.16;95.26
47761;BME280;33524;55.434;38.520;2022-11-20T14:03:48;100909.78;;;-2.20;94.42
47761;BME280;33524;55.434;38.520;2022-11-20T14:06:44;100897.81;;;-2.26;94.39
47761;BME280;33524;55.434;38.520;2022-11-20T14:09:34;100921.87;;;-2.29;95.32
47761;BME280;33524;55.434;38.520;2022-11-20T14:12:03;100917.66;;;-2.36;95.87
47761;BME280;33524;55.434;38.520;2022-11-20T14:14:52;100921.87;;;-2.29;95.89
47761;BME280;33524;55.434;38.520;2022-11-20T14:17:23;100915.00;;;-2.30;96.06
47761;BME280;33524;55.434;38.520;2022-11-20T14:19:53;100926.09;;;-2.21;96.41
47761;BME280;33524;55.434;38.520;2022-11-20T14:22:26;100916.62;;;-2.19;96.66
47761;BME280;33524;55.434;38.520;2022-11-20T14:27:43;100920.09;;;-2.24;96.55
47761;BME280;33524;55.434;38.520;2022-11-20T14:30:14;100925.25;;;-2.22;97.10
47761;BME280;33524;55.434;38.520;2022-11-20T14:32:44;100927.75;;;-2.16;97.33
47761;BME280;33524;55.434;38.520;2022-11-20T14:35:44;100930.38;;;-2.19;97.53
47761;BME280;33524;55.434;38.520;2022-11-20T14:38:16;100939.88;;;-2.24;97.19
47761;BME280;33524;55.434;38.520;2022-11-20T14:40:45;100950.88;;;-2.11;97.48
47761;BME280;33524;55.434;38.520;2022-11-20T14:43:25;100953.50;;;-2.14;97.52
47761;BME280;33524;55.434;38.520;2022-11-20T14:46:09;100950.94;;;-2.17;97.73
47761;BME280;33524;55.434;38.520;2022-11-20T14:48:51;100942.44;;;-2.24;97.01
47761;BME280;33524;55.434;38.520;2022-11-20T14:51:38;100963.81;;;-2.13;96.88